createdAt,value
2022-12-08T00:04:19.847Z,99.90
2022-12-08T00:09:20.725Z,99.90
2022-12-08T00:14:05.795Z,99.90
2022-12-08T00:18:50.387Z,99.90
2022-12-08T00:23:34.850Z,99.90
2022-12-08T00:28:20.034Z,99.90
2022-12-08T00:33:05.043Z,99.90
2022-12-08T00:37:48.557Z,99.90
2022-12-08T00:42:32.059Z,99.90
2022-12-08T00:47:22.228Z,99.90
2022-12-08T00:52:09.882Z,99.90
2022-12-08T00:56:53.592Z,99.90
2022-12-08T01:01:37.624Z,99.90
2022-12-08T01:06:21.493Z,99.90
2022-12-08T01:11:07.415Z,99.90
2022-12-08T01:15:50.850Z,99.90
2022-12-08T01:20:34.279Z,99.90
2022-12-08T01:25:17.938Z,99.90
2022-12-08T01:30:03.206Z,99.90
2022-12-08T01:34:46.950Z,99.90
2022-12-08T01:39:30.884Z,99.90
2022-12-08T01:44:54.207Z,99.90
2022-12-08T01:49:39.347Z,99.90
2022-12-08T01:54:25.657Z,99.90
2022-12-08T01:59:09.267Z,99.90
2022-12-08T02:03:58.404Z,99.90
2022-12-08T02:08:43.977Z,99.90
2022-12-08T02:13:27.611Z,99.90
2022-12-08T02:18:25.886Z,99.90
2022-12-08T02:23:20.401Z,99.90
2022-12-08T02:28:17.665Z,99.90
2022-12-08T02:33:23.041Z,99.90
2022-12-08T02:38:15.895Z,99.90
2022-12-08T02:43:04.284Z,99.90
2022-12-08T02:47:48.799Z,99.90
2022-12-08T02:52:45.952Z,99.90
2022-12-08T02:57:37.485Z,99.90
2022-12-08T03:02:42.130Z,99.90
2022-12-08T03:07:30.652Z,99.90
2022-12-08T03:12:18.027Z,99.90
2022-12-08T03:17:06.973Z,99.90
2022-12-08T03:21:54.154Z,99.90
2022-12-08T03:26:44.976Z,99.90
2022-12-08T03:31:34.368Z,99.90
2022-12-08T03:36:20.827Z,99.90
2022-12-08T03:41:18.070Z,99.90
2022-12-08T03:46:01.579Z,99.90
2022-12-08T03:50:45.045Z,99.90
2022-12-08T03:55:29.912Z,99.90
2022-12-08T04:00:17.410Z,99.90
2022-12-08T04:05:00.890Z,99.90
2022-12-08T04:09:45.116Z,99.90
2022-12-08T04:14:30.060Z,99.90
2022-12-08T04:19:13.645Z,99.90
2022-12-08T04:24:01.032Z,99.90
2022-12-08T04:28:45.135Z,99.90
2022-12-08T04:33:30.066Z,99.90
2022-12-08T04:38:14.185Z,99.90
2022-12-08T04:42:57.597Z,99.90
2022-12-08T04:47:41.322Z,99.90
2022-12-08T04:52:26.364Z,99.90
2022-12-08T04:57:09.807Z,99.90
2022-12-08T05:01:53.431Z,99.90
2022-12-08T05:06:36.928Z,99.90
2022-12-08T05:11:21.768Z,99.90
2022-12-08T05:16:07.485Z,99.90
2022-12-08T05:20:51.173Z,99.90
2022-12-08T05:25:34.593Z,99.90
2022-12-08T05:30:19.959Z,99.90
2022-12-08T05:35:03.457Z,99.90
2022-12-08T05:39:46.940Z,99.90
2022-12-08T05:44:30.442Z,99.90
2022-12-08T05:49:15.407Z,99.90
2022-12-08T05:53:59.673Z,99.90
2022-12-08T05:58:43.264Z,99.90
2022-12-08T06:03:26.815Z,99.90
2022-12-08T06:08:12.347Z,99.90
2022-12-08T06:12:55.944Z,99.90
2022-12-08T06:17:39.593Z,99.90
2022-12-08T06:22:23.067Z,99.90
2022-12-08T06:27:08.472Z,99.90
2022-12-08T06:31:52.541Z,99.90
2022-12-08T06:36:36.127Z,99.90
2022-12-08T06:41:19.766Z,99.90
2022-12-08T06:46:07.641Z,99.90
2022-12-08T06:50:51.435Z,99.90
2022-12-08T06:55:57.952Z,99.90
2022-12-08T07:00:39.389Z,99.90
2022-12-08T07:05:24.212Z,99.90
2022-12-08T07:10:09.037Z,99.90
2022-12-08T07:14:52.559Z,99.90
2022-12-08T07:19:36.397Z,99.90
2022-12-08T07:24:21.321Z,99.90
2022-12-08T07:29:05.342Z,99.90
2022-12-08T07:33:48.835Z,99.90
2022-12-08T07:38:32.957Z,99.90
2022-12-08T07:43:17.851Z,99.90
2022-12-08T07:48:01.419Z,99.90
2022-12-08T07:52:45.179Z,99.90
2022-12-08T07:57:28.648Z,99.90
2022-12-08T08:02:24.379Z,99.90
2022-12-08T08:07:09.680Z,99.90
2022-12-08T08:12:22.150Z,99.90
2022-12-08T08:16:57.019Z,99.90
2022-12-08T08:21:46.300Z,99.90
2022-12-08T08:26:30.408Z,99.90
2022-12-08T08:31:14.768Z,99.90
2022-12-08T08:35:59.182Z,99.90
2022-12-08T08:40:44.039Z,99.90
2022-12-08T08:45:27.526Z,99.90
2022-12-08T08:50:11.344Z,99.90
2022-12-08T08:54:54.839Z,99.90
2022-12-08T08:59:40.158Z,99.90
2022-12-08T09:04:24.484Z,99.90
2022-12-08T09:09:08.278Z,99.90
2022-12-08T09:13:52.473Z,99.90
2022-12-08T09:18:37.473Z,99.90
2022-12-08T09:23:21.726Z,99.90
2022-12-08T09:28:05.939Z,99.90
2022-12-08T09:32:49.419Z,99.90
2022-12-08T09:37:34.759Z,99.90
2022-12-08T09:42:28.148Z,99.90
2022-12-08T09:47:19.831Z,99.90
2022-12-08T09:52:04.302Z,99.90
2022-12-08T09:56:50.741Z,99.90
2022-12-08T10:01:38.592Z,99.90
2022-12-08T10:06:29.511Z,99.90
2022-12-08T10:11:17.942Z,99.90
2022-12-08T10:16:21.984Z,99.90
2022-12-08T10:21:18.399Z,99.90
2022-12-08T10:26:04.199Z,99.90
2022-12-08T10:30:47.623Z,99.90
2022-12-08T10:35:45.737Z,99.90
2022-12-08T10:40:31.028Z,99.90
2022-12-08T10:45:28.095Z,99.90
2022-12-08T10:50:19.941Z,99.90
2022-12-08T10:55:05.584Z,99.90
2022-12-08T10:59:49.381Z,99.90
2022-12-08T11:04:37.536Z,99.90
2022-12-08T11:09:31.227Z,99.90
2022-12-08T11:14:20.521Z,99.90
2022-12-08T11:19:06.928Z,99.90
2022-12-08T11:23:53.008Z,99.90
2022-12-08T11:28:36.670Z,99.90
2022-12-08T11:33:24.419Z,99.90
2022-12-08T11:38:21.494Z,99.90
2022-12-08T11:43:16.858Z,99.90
2022-12-08T11:48:11.236Z,99.90
2022-12-08T11:52:58.631Z,99.90
2022-12-08T11:57:42.458Z,99.90
2022-12-08T12:02:29.090Z,99.90
2022-12-08T12:07:46.601Z,99.90
2022-12-08T12:12:45.606Z,99.90
2022-12-08T12:17:41.023Z,99.90
2022-12-08T12:22:25.666Z,99.90
2022-12-08T12:27:23.821Z,99.90
2022-12-08T12:32:11.677Z,99.90
2022-12-08T12:36:57.881Z,99.80
2022-12-08T12:41:48.249Z,98.20
2022-12-08T12:46:54.623Z,97.20
2022-12-08T12:51:47.470Z,96.70
2022-12-08T12:56:53.448Z,94.80
2022-12-08T13:01:58.499Z,93.60
2022-12-08T13:06:48.233Z,93.70
2022-12-08T13:11:47.904Z,93.40
2022-12-08T13:16:35.465Z,93.90
2022-12-08T13:21:22.962Z,92.70
2022-12-08T13:26:21.417Z,91.60
2022-12-08T13:31:05.339Z,92.70
2022-12-08T13:35:56.589Z,92.20
2022-12-08T13:40:43.524Z,92.50
2022-12-08T13:46:12.157Z,91.20
2022-12-08T13:52:37.016Z,91.30
2022-12-08T14:01:04.508Z,91.40
2022-12-08T14:06:11.759Z,90.90
2022-12-08T14:11:00.099Z,92.00
2022-12-08T14:15:43.724Z,93.50
2022-12-08T14:20:30.190Z,97.20
2022-12-08T14:25:16.804Z,99.00
2022-12-08T14:30:03.069Z,99.90
2022-12-08T14:34:46.524Z,99.90
2022-12-08T14:39:31.446Z,99.90
2022-12-08T14:44:25.196Z,99.90
2022-12-08T14:49:35.851Z,99.90
2022-12-08T14:54:20.572Z,99.90
2022-12-08T14:59:09.354Z,99.90
2022-12-08T15:03:54.890Z,99.90
2022-12-08T15:08:54.272Z,99.90
2022-12-08T15:13:47.880Z,99.90
2022-12-08T15:18:39.318Z,99.90
2022-12-08T15:23:28.176Z,99.90
2022-12-08T15:28:13.272Z,99.90
2022-12-08T15:32:56.872Z,99.90
2022-12-08T15:37:42.267Z,99.90
2022-12-08T15:42:26.178Z,99.90
2022-12-08T15:47:16.150Z,99.90
2022-12-08T15:52:10.790Z,99.90
2022-12-08T16:02:02.841Z,99.90
2022-12-08T16:12:10.541Z,99.90
2022-12-08T16:16:56.811Z,99.90
2022-12-08T16:22:29.742Z,99.90
2022-12-08T16:27:58.063Z,99.90
2022-12-08T16:31:49.463Z,99.90
2022-12-08T16:36:34.461Z,99.90
2022-12-08T16:41:36.281Z,99.90
2022-12-08T16:46:24.302Z,99.90
2022-12-08T16:51:10.508Z,99.90
2022-12-08T16:55:56.338Z,99.90
2022-12-08T17:00:39.865Z,99.90
2022-12-08T17:05:25.588Z,99.90
2022-12-08T17:10:12.221Z,99.90
2022-12-08T17:14:57.373Z,99.90
2022-12-08T17:19:41.555Z,99.90
2022-12-08T17:24:29.454Z,99.90
2022-12-08T17:29:14.542Z,99.90
2022-12-08T17:33:59.992Z,99.90
2022-12-08T17:38:44.940Z,99.90
2022-12-08T17:43:28.589Z,99.90
2022-12-08T17:48:13.807Z,99.90
2022-12-08T17:53:00.219Z,99.90
2022-12-08T17:57:44.071Z,99.90
2022-12-08T18:02:27.913Z,99.90
2022-12-08T18:07:11.706Z,99.90
2022-12-08T18:11:57.928Z,99.90
2022-12-08T18:16:49.019Z,99.90
2022-12-08T18:21:33.819Z,99.90
2022-12-08T18:26:19.032Z,99.90
2022-12-08T18:31:09.329Z,99.90
2022-12-08T18:35:54.121Z,99.90
2022-12-08T18:40:37.948Z,99.90
2022-12-08T18:45:23.558Z,99.90
2022-12-08T18:50:12.255Z,99.90
2022-12-08T18:55:06.268Z,99.90
2022-12-08T18:59:52.198Z,99.90
2022-12-08T19:04:39.078Z,99.90
2022-12-08T19:09:31.983Z,99.90
2022-12-08T19:14:15.951Z,99.90
2022-12-08T19:19:01.796Z,99.90
2022-12-08T19:23:50.140Z,99.90
2022-12-08T19:28:37.787Z,99.90
2022-12-08T19:33:22.808Z,99.90
2022-12-08T19:38:07.792Z,99.90
2022-12-08T19:43:10.045Z,99.90
2022-12-08T19:48:00.335Z,99.90
2022-12-08T19:52:50.453Z,99.90
2022-12-08T19:57:36.061Z,99.90
2022-12-08T20:02:20.580Z,99.90
2022-12-08T20:07:07.018Z,99.90
2022-12-08T20:11:54.865Z,99.90
2022-12-08T20:16:41.662Z,99.90
2022-12-08T20:21:27.597Z,99.90
2022-12-08T20:26:17.089Z,99.90
2022-12-08T20:31:06.928Z,99.90
2022-12-08T20:36:01.430Z,99.90
2022-12-08T20:40:47.990Z,99.90
2022-12-08T20:45:38.325Z,99.90
2022-12-08T20:50:24.510Z,99.90
2022-12-08T20:55:12.052Z,99.90
2022-12-08T20:59:56.346Z,99.90
2022-12-08T21:04:43.823Z,99.90
2022-12-08T21:09:28.393Z,99.90
2022-12-08T21:14:12.252Z,99.90
2022-12-08T21:18:55.946Z,99.90
2022-12-08T21:23:42.127Z,99.90
2022-12-08T21:28:26.157Z,99.90
2022-12-08T21:33:10.649Z,99.90
2022-12-08T21:37:54.279Z,99.90
2022-12-08T21:42:45.569Z,99.90
2022-12-08T21:47:30.225Z,99.90
2022-12-08T21:52:13.921Z,99.90
2022-12-08T21:56:57.753Z,99.90
2022-12-08T22:01:43.636Z,99.90
2022-12-08T22:06:27.578Z,99.90
2022-12-08T22:11:12.873Z,99.90
2022-12-08T22:16:01.070Z,99.90
2022-12-08T22:20:46.422Z,99.90
2022-12-08T22:25:30.331Z,99.90
2022-12-08T22:30:14.438Z,99.90
2022-12-08T22:34:59.970Z,99.90
2022-12-08T22:39:46.793Z,99.90
2022-12-08T22:44:30.752Z,99.90
2022-12-08T22:49:14.514Z,99.90
2022-12-08T22:53:58.271Z,99.90
2022-12-08T22:58:44.472Z,99.90
2022-12-08T23:03:29.030Z,99.90
2022-12-08T23:08:18.267Z,99.90
2022-12-08T23:13:04.133Z,99.90
2022-12-08T23:17:50.117Z,99.90
2022-12-08T23:22:33.812Z,99.90
2022-12-08T23:27:18.242Z,99.90
2022-12-08T23:32:02.017Z,99.90
2022-12-08T23:36:47.161Z,99.90
2022-12-08T23:41:30.737Z,99.90
2022-12-08T23:46:15.257Z,99.90
2022-12-08T23:50:58.972Z,99.90
2022-12-08T23:55:44.857Z,99.90
